Terminal Aerodrome Forecast
Issued by NWS Charleston, WV

Current Version | Previous Version | Text Only | Print | Product List | Glossary Off
Versions: 1 2 3 4 5 6 7 8 9 10 11 12 13 14 15 16 17 18 19 20 21 22 23 24 25 26

000
FTUS41 KRLX 220520
TAFEKN
TAF
KEKN 220520Z 2206/2306 00000KT P6SM SKC
     FM220730 00000KT 1/4SM FG OVC001
     FM221400 12004KT P6SM SKC
     FM221900 06004KT P6SM FEW050=

USA.gov is the U.S. government's official web portal to all federal, state and local government web resources and services.